Time;durP1;ratioP1;P1;durP2;ratioP2;P2;SDS_P1;SDS_P2;PMS_P1;PMS_P2;Temp;Humidity;BMP_temperature;BMP_pressure;BME280_temperature;BME280_humidity;BME280_pressure;Samples;Min_cycle;Max_cycle;Signal;HPM_P1;HPM_P2
2024/01/07 00:01:20;;;;;;;17.53;13.70;;;7.30;99.90;;;;;;5025288;28;20207;-64
2024/01/07 00:03:48;;;;;;;17.80;13.30;;;7.40;99.90;;;;;;5023735;28;20313;-63
2024/01/07 00:06:15;;;;;;;17.23;13.13;;;7.50;99.90;;;;;;5021831;28;20211;-64
2024/01/07 00:08:41;;;;;;;17.20;12.53;;;7.50;99.90;;;;;;5022515;28;20227;-62
2024/01/07 00:11:08;;;;;;;17.00;13.53;;;7.40;99.90;;;;;;5024984;28;20212;-64
2024/01/07 00:13:35;;;;;;;15.43;13.13;;;7.30;99.90;;;;;;5024457;28;20238;-62
2024/01/07 00:16:02;;;;;;;18.03;14.23;;;7.30;99.90;;;;;;5013795;28;20203;-62
2024/01/07 00:18:28;;;;;;;18.87;13.27;;;7.40;99.90;;;;;;5021658;28;20206;-63
2024/01/07 00:20:57;;;;;;;17.97;13.70;;;7.40;99.90;;;;;;5024451;28;20233;-63
2024/01/07 00:23:24;;;;;;;16.53;13.57;;;7.50;99.90;;;;;;5024818;28;20248;-62
2024/01/07 00:25:50;;;;;;;18.47;13.53;;;7.50;99.90;;;;;;5022727;28;20217;-63
2024/01/07 00:28:17;;;;;;;18.10;13.67;;;7.60;99.90;;;;;;5021405;28;20483;-62
2024/01/07 00:30:44;;;;;;;17.73;14.00;;;7.70;99.90;;;;;;5022319;28;20699;-62
2024/01/07 00:33:11;;;;;;;15.80;13.03;;;7.80;99.90;;;;;;5024620;28;20641;-64
2024/01/07 00:35:37;;;;;;;16.50;13.57;;;7.80;99.90;;;;;;5024598;28;20221;-65
2024/01/07 00:38:05;;;;;;;16.97;13.07;;;7.90;99.90;;;;;;5021181;28;20203;-63
2024/01/07 00:40:32;;;;;;;16.50;13.60;;;7.90;99.90;;;;;;5021088;28;20210;-63
2024/01/07 00:42:59;;;;;;;16.90;14.23;;;8.00;99.90;;;;;;5023501;28;20202;-63
2024/01/07 00:45:25;;;;;;;18.57;13.70;;;8.00;99.90;;;;;;5024300;28;20202;-64
2024/01/07 00:47:54;;;;;;;19.83;14.00;;;8.00;99.90;;;;;;5021916;28;20218;-62
2024/01/07 00:50:21;;;;;;;15.87;13.87;;;8.10;99.90;;;;;;5020974;28;20575;-63
2024/01/07 00:52:48;;;;;;;19.57;13.60;;;8.10;99.90;;;;;;5021800;28;20221;-62
2024/01/07 00:55:16;;;;;;;18.57;14.03;;;8.20;99.90;;;;;;5024050;28;20210;-63
2024/01/07 00:57:42;;;;;;;17.70;14.03;;;8.10;99.90;;;;;;5015400;28;20211;-62
2024/01/07 01:00:10;;;;;;;15.90;13.43;;;8.10;99.90;;;;;;5012829;28;20211;-61
2024/01/07 01:02:38;;;;;;;17.30;13.40;;;8.10;99.90;;;;;;5012692;28;20207;-62
2024/01/07 01:05:06;;;;;;;18.77;13.83;;;8.10;99.90;;;;;;5012500;28;20713;-63
2024/01/07 01:07:32;;;;;;;17.80;13.70;;;8.10;99.90;;;;;;5012490;28;20230;-63
2024/01/07 01:09:59;;;;;;;16.57;12.77;;;8.10;99.90;;;;;;5012633;28;20207;-63
2024/01/07 01:12:27;;;;;;;18.70;12.90;;;8.10;99.90;;;;;;5012514;28;20206;-63
2024/01/07 01:14:54;;;;;;;18.67;12.63;;;8.10;99.90;;;;;;5012573;28;20739;-62
2024/01/07 01:17:21;;;;;;;19.30;13.93;;;8.20;99.90;;;;;;5012265;28;20218;-62
2024/01/07 01:19:47;;;;;;;20.73;13.07;;;8.10;99.90;;;;;;5012189;28;20226;-62
2024/01/07 01:22:14;;;;;;;19.13;13.77;;;8.10;99.90;;;;;;5012255;28;20203;-61
2024/01/07 01:24:40;;;;;;;17.83;13.77;;;8.20;99.90;;;;;;5012215;28;20230;-61
2024/01/07 01:27:07;;;;;;;20.90;13.13;;;8.30;99.90;;;;;;5012173;28;20237;-62
2024/01/07 01:29:35;;;;;;;17.93;13.00;;;8.30;99.90;;;;;;5012384;28;20214;-62
2024/01/07 01:32:02;;;;;;;19.53;13.80;;;8.10;99.90;;;;;;5012118;28;20583;-62
2024/01/07 01:34:27;;;;;;;16.83;13.03;;;8.00;99.90;;;;;;5011775;28;20277;-62
2024/01/07 01:36:54;;;;;;;18.20;13.13;;;7.80;99.90;;;;;;5011890;28;20199;-62
2024/01/07 01:39:21;;;;;;;15.90;12.70;;;7.70;99.90;;;;;;5012245;28;20206;-61
2024/01/07 01:41:47;;;;;;;23.70;14.70;;;7.60;99.90;;;;;;5012638;28;20218;-62
2024/01/07 01:44:14;;;;;;;16.63;13.40;;;7.60;99.90;;;;;;5011730;28;20246;-62
2024/01/07 01:46:42;;;;;;;16.87;13.43;;;7.50;99.90;;;;;;5011970;28;20215;-63
2024/01/07 01:49:09;;;;;;;16.97;13.00;;;7.40;99.90;;;;;;5012268;28;20227;-61
2024/01/07 01:51:36;;;;;;;17.17;13.60;;;7.30;99.90;;;;;;5012103;28;20214;-61
2024/01/07 01:54:04;;;;;;;18.03;13.63;;;7.20;99.90;;;;;;5011253;28;20231;-62
2024/01/07 01:56:30;;;;;;;17.50;12.47;;;7.10;99.90;;;;;;5011892;28;20742;-62
2024/01/07 01:58:57;;;;;;;20.37;13.70;;;7.10;99.90;;;;;;5012040;28;20207;-61
2024/01/07 02:01:24;;;;;;;18.67;13.37;;;7.20;99.90;;;;;;5011759;28;20261;-62
2024/01/07 02:03:53;;;;;;;18.67;13.43;;;7.10;99.90;;;;;;5011366;28;20720;-61
2024/01/07 02:06:21;;;;;;;16.83;12.80;;;7.00;99.90;;;;;;5011786;28;20253;-62
2024/01/07 02:08:49;;;;;;;18.73;13.30;;;6.90;99.90;;;;;;5011644;28;20738;-62
2024/01/07 02:11:17;;;;;;;18.27;13.53;;;6.80;99.90;;;;;;5011936;28;20202;-62
2024/01/07 02:13:44;;;;;;;19.57;13.50;;;6.80;99.90;;;;;;5011574;28;20313;-61
2024/01/07 02:16:11;;;;;;;18.77;14.07;;;7.00;99.90;;;;;;5011398;28;20210;-62
2024/01/07 02:18:38;;;;;;;17.03;13.07;;;6.90;99.90;;;;;;5013973;28;20210;-61
2024/01/07 02:21:08;;;;;;;19.70;13.13;;;6.90;99.90;;;;;;5011987;28;20254;-63
2024/01/07 02:23:34;;;;;;;19.67;14.90;;;6.90;99.90;;;;;;5012172;28;20230;-62
2024/01/07 02:26:02;;;;;;;18.13;14.37;;;7.00;99.90;;;;;;5011708;28;20627;-61
2024/01/07 02:28:30;;;;;;;19.17;13.30;;;7.20;99.90;;;;;;5011513;28;20281;-62
2024/01/07 02:30:56;;;;;;;17.03;13.10;;;7.40;99.90;;;;;;5012040;28;20214;-62
2024/01/07 02:33:23;;;;;;;19.57;13.80;;;7.60;99.90;;;;;;5012111;28;20281;-63
2024/01/07 02:35:50;;;;;;;17.37;13.50;;;7.70;99.90;;;;;;5012278;28;20269;-62
2024/01/07 02:38:17;;;;;;;18.90;12.43;;;7.70;99.90;;;;;;5012031;28;20210;-60
2024/01/07 02:40:43;;;;;;;19.43;13.43;;;7.80;99.90;;;;;;5012358;28;20203;-62
2024/01/07 02:43:11;;;;;;;16.37;13.43;;;7.70;99.90;;;;;;5011098;28;20297;-63
2024/01/07 02:45:38;;;;;;;17.90;12.73;;;7.50;99.90;;;;;;5011236;28;20366;-63
2024/01/07 02:48:05;;;;;;;18.80;13.33;;;7.60;99.90;;;;;;5011516;28;20227;-62
2024/01/07 02:50:33;;;;;;;16.40;12.67;;;7.70;99.90;;;;;;5011586;28;20673;-62
2024/01/07 02:52:59;;;;;;;18.77;13.17;;;7.60;99.90;;;;;;5011088;28;20704;-62
2024/01/07 02:55:26;;;;;;;18.03;12.93;;;7.60;99.90;;;;;;5011157;28;20211;-62
2024/01/07 02:57:53;;;;;;;15.73;12.20;;;7.50;99.90;;;;;;5011261;28;20210;-62
2024/01/07 03:00:21;;;;;;;21.17;13.23;;;7.40;99.90;;;;;;5011474;28;20206;-62
2024/01/07 03:02:48;;;;;;;16.83;12.47;;;7.40;99.90;;;;;;5011602;28;20207;-61
2024/01/07 03:05:14;;;;;;;16.80;12.83;;;7.40;99.90;;;;;;5011765;28;20203;-62
2024/01/07 03:07:41;;;;;;;16.87;12.33;;;7.40;99.90;;;;;;5014758;28;20203;-62
2024/01/07 03:10:09;;;;;;;14.53;11.57;;;7.30;99.90;;;;;;5014805;28;20211;-61
2024/01/07 03:12:35;;;;;;;14.77;11.50;;;7.10;99.90;;;;;;5014375;28;20215;-61
2024/01/07 03:15:02;;;;;;;14.87;10.10;;;7.00;99.90;;;;;;5014675;28;20231;-62
2024/01/07 03:17:30;;;;;;;10.93;9.53;;;6.80;99.90;;;;;;5014580;28;20211;-62
2024/01/07 03:19:57;;;;;;;18.03;9.77;;;6.80;99.90;;;;;;5014716;28;20234;-60
2024/01/07 03:22:24;;;;;;;13.97;9.27;;;6.70;99.90;;;;;;5014402;28;20211;-62
2024/01/07 03:24:51;;;;;;;14.17;9.13;;;6.60;99.90;;;;;;5014437;28;20227;-62
2024/01/07 03:27:18;;;;;;;10.83;8.80;;;6.50;99.90;;;;;;5014720;28;20216;-61
2024/01/07 03:29:44;;;;;;;11.83;8.13;;;6.40;99.90;;;;;;5015045;28;20234;-62
2024/01/07 03:32:11;;;;;;;12.27;8.83;;;6.40;99.90;;;;;;5014684;28;20207;-62
2024/01/07 03:34:40;;;;;;;9.77;8.00;;;6.40;99.90;;;;;;5014022;28;20231;-60
2024/01/07 03:37:06;;;;;;;9.73;7.80;;;6.30;99.90;;;;;;5014242;28;20743;-62
2024/01/07 03:39:33;;;;;;;9.43;8.03;;;6.40;99.90;;;;;;5014383;28;20605;-61
2024/01/07 03:42:00;;;;;;;10.60;7.67;;;6.30;99.90;;;;;;5014173;28;20214;-61
2024/01/07 03:44:27;;;;;;;10.53;7.67;;;6.40;99.90;;;;;;5048250;22;20325;-60
2024/01/07 03:46:53;;;;;;;11.33;7.57;;;6.40;99.90;;;;;;5033304;28;20260;-60
2024/01/07 03:49:20;;;;;;;8.27;6.93;;;6.40;99.90;;;;;;5033319;28;20645;-60
2024/01/07 03:51:48;;;;;;;10.37;7.83;;;6.40;99.90;;;;;;5033005;28;20270;-59
2024/01/07 03:54:15;;;;;;;8.83;6.90;;;6.30;99.90;;;;;;5028150;28;20650;-59
2024/01/07 03:56:41;;;;;;;8.93;7.53;;;6.30;99.90;;;;;;5021302;28;20690;-58
2024/01/07 03:59:08;;;;;;;8.60;7.07;;;6.20;99.90;;;;;;5025028;28;20205;-59
2024/01/07 04:01:35;;;;;;;7.87;6.97;;;6.20;99.90;;;;;;5024727;28;20202;-60
2024/01/07 04:04:01;;;;;;;10.30;7.27;;;6.20;99.90;;;;;;5021603;28;20233;-58
2024/01/07 04:06:28;;;;;;;7.93;6.97;;;6.30;99.90;;;;;;5021182;28;20598;-61
2024/01/07 04:08:56;;;;;;;9.17;6.77;;;6.50;99.90;;;;;;5022680;28;20229;-59
2024/01/07 04:11:22;;;;;;;8.57;6.70;;;6.50;99.90;;;;;;5024759;28;20210;-60
2024/01/07 04:13:49;;;;;;;9.53;6.97;;;6.60;99.90;;;;;;5023195;28;20230;-58
2024/01/07 04:16:19;;;;;;;11.60;6.57;;;6.60;99.90;;;;;;5020609;28;20324;-59
2024/01/07 04:18:46;;;;;;;10.20;6.77;;;6.70;99.90;;;;;;5021664;28;20203;-59
2024/01/07 04:21:13;;;;;;;8.40;6.77;;;6.80;99.90;;;;;;5024321;28;20293;-59
2024/01/07 04:23:40;;;;;;;9.17;6.73;;;6.90;99.90;;;;;;5023902;28;20236;-58
2024/01/07 04:26:08;;;;;;;8.47;6.70;;;7.00;99.90;;;;;;5020949;28;20210;-60
2024/01/07 04:28:35;;;;;;;8.50;6.77;;;7.10;99.90;;;;;;5021050;28;20223;-59
2024/01/07 04:31:01;;;;;;;8.70;7.13;;;7.10;99.90;;;;;;5023428;28;20209;-58
2024/01/07 04:33:28;;;;;;;8.37;6.83;;;7.30;99.90;;;;;;5023759;28;20719;-59
2024/01/07 04:35:57;;;;;;;8.97;6.93;;;7.30;99.90;;;;;;5022074;28;20622;-59
2024/01/07 04:38:24;;;;;;;11.23;6.97;;;7.30;99.90;;;;;;5020763;28;20269;-59
2024/01/07 04:40:51;;;;;;;9.17;7.23;;;7.20;99.90;;;;;;5021728;28;20308;-59
2024/01/07 04:43:20;;;;;;;8.87;7.03;;;7.10;99.90;;;;;;5023651;28;20296;-59
2024/01/07 04:45:46;;;;;;;7.77;6.77;;;7.00;99.90;;;;;;5023213;28;20221;-59
2024/01/07 04:48:13;;;;;;;8.80;7.10;;;6.90;99.90;;;;;;5021019;28;20668;-59
2024/01/07 04:50:40;;;;;;;8.57;6.93;;;6.80;99.90;;;;;;5020226;28;20207;-58
2024/01/07 04:53:08;;;;;;;9.83;6.93;;;6.70;99.90;;;;;;5011962;28;20722;-57
2024/01/07 04:55:35;;;;;;;8.23;7.07;;;6.70;99.90;;;;;;5020312;28;20203;-59
2024/01/07 04:58:03;;;;;;;7.33;6.50;;;6.60;99.90;;;;;;5022877;28;20203;-59
2024/01/07 05:00:31;;;;;;;10.47;6.50;;;6.40;99.90;;;;;;5023670;28;20206;-58
2024/01/07 05:02:58;;;;;;;8.20;6.90;;;6.40;99.90;;;;;;5021330;28;20234;-58
2024/01/07 05:05:25;;;;;;;7.70;6.77;;;6.30;99.90;;;;;;5020101;28;20223;-59
2024/01/07 05:07:52;;;;;;;10.53;6.83;;;6.40;99.90;;;;;;5021532;28;20298;-59
2024/01/07 05:10:19;;;;;;;8.07;7.10;;;6.60;99.90;;;;;;5024267;28;20332;-60
2024/01/07 05:12:44;;;;;;;7.87;7.07;;;6.60;99.90;;;;;;5022999;28;20244;-60
2024/01/07 05:15:11;;;;;;;11.27;6.97;;;6.60;99.90;;;;;;5019812;28;20709;-60
2024/01/07 05:17:39;;;;;;;8.87;6.70;;;6.90;99.90;;;;;;5019814;28;20207;-60
2024/01/07 05:20:07;;;;;;;11.00;7.47;;;7.00;99.90;;;;;;5022928;28;20248;-60
2024/01/07 05:22:34;;;;;;;10.67;6.83;;;7.20;99.90;;;;;;5023174;28;20286;-60
2024/01/07 05:25:01;;;;;;;8.50;6.73;;;7.40;99.90;;;;;;5020966;28;20325;-60
2024/01/07 05:27:28;;;;;;;9.67;6.83;;;7.40;99.90;;;;;;5019645;28;20211;-60
2024/01/07 05:29:55;;;;;;;9.90;6.70;;;7.50;99.90;;;;;;5020501;28;20249;-60
2024/01/07 05:32:22;;;;;;;9.20;6.80;;;7.40;99.90;;;;;;5023387;28;20237;-60
2024/01/07 05:34:50;;;;;;;8.03;7.13;;;7.40;99.90;;;;;;5022338;28;20258;-60
2024/01/07 05:37:17;;;;;;;7.77;6.93;;;7.30;99.90;;;;;;5019783;28;20211;-60
2024/01/07 05:39:43;;;;;;;7.10;6.40;;;7.30;99.90;;;;;;5019470;28;20216;-60
2024/01/07 05:42:10;;;;;;;7.63;6.00;;;7.30;99.90;;;;;;5011597;28;20198;-60
2024/01/07 05:44:37;;;;;;;7.67;6.03;;;7.30;99.90;;;;;;5019181;28;20258;-58
2024/01/07 05:47:04;;;;;;;10.13;6.27;;;7.20;99.90;;;;;;5022078;28;20203;-59
2024/01/07 05:49:31;;;;;;;6.93;5.60;;;7.30;99.90;;;;;;5023021;28;20364;-59
2024/01/07 05:51:59;;;;;;;6.93;5.70;;;7.10;99.90;;;;;;5021136;28;20214;-58
2024/01/07 05:54:25;;;;;;;7.17;6.47;;;7.00;99.90;;;;;;5019150;28;20227;-59
2024/01/07 05:56:52;;;;;;;8.60;6.10;;;6.80;99.90;;;;;;5020427;28;20203;-58
2024/01/07 05:59:19;;;;;;;7.43;6.63;;;6.70;99.90;;;;;;5022783;28;20289;-58
2024/01/07 06:01:46;;;;;;;7.47;6.50;;;6.70;99.90;;;;;;5022530;28;20253;-58
2024/01/07 06:04:13;;;;;;;8.67;5.93;;;6.70;99.90;;;;;;5019036;28;20670;-58
2024/01/07 06:06:39;;;;;;;7.50;6.70;;;6.60;99.90;;;;;;5019353;28;20264;-58
2024/01/07 06:09:07;;;;;;;8.57;6.67;;;6.60;99.90;;;;;;5021993;28;20230;-59
2024/01/07 06:11:34;;;;;;;7.77;6.63;;;6.60;99.90;;;;;;5022523;28;20653;-58
2024/01/07 06:14:01;;;;;;;7.33;6.20;;;6.60;99.90;;;;;;5020160;28;20222;-58
2024/01/07 06:16:27;;;;;;;8.03;6.60;;;6.80;99.90;;;;;;5019595;28;20278;-57
2024/01/07 06:18:54;;;;;;;8.73;7.33;;;6.90;99.90;;;;;;5020343;28;20214;-58
2024/01/07 06:21:21;;;;;;;7.90;6.20;;;6.90;99.90;;;;;;5022602;28;20686;-59
2024/01/07 06:23:47;;;;;;;8.70;7.13;;;7.00;99.90;;;;;;5022219;28;20226;-60
2024/01/07 06:26:16;;;;;;;8.10;6.80;;;7.10;99.90;;;;;;5019060;28;20203;-59
2024/01/07 06:28:43;;;;;;;10.70;8.00;;;7.20;99.90;;;;;;5019719;28;20211;-59
2024/01/07 06:31:09;;;;;;;8.13;6.47;;;7.20;99.90;;;;;;5022780;28;20222;-60
2024/01/07 06:33:36;;;;;;;9.23;7.10;;;7.20;99.90;;;;;;5022561;28;20230;-62
2024/01/07 06:36:04;;;;;;;8.67;7.47;;;7.10;99.90;;;;;;5020187;28;20237;-60
2024/01/07 06:38:30;;;;;;;7.67;6.87;;;7.10;99.90;;;;;;5019233;28;20206;-59
2024/01/07 06:41:00;;;;;;;7.80;6.90;;;7.10;99.90;;;;;;5024382;28;20199;-61
2024/01/07 06:43:28;;;;;;;9.57;7.60;;;6.90;99.90;;;;;;5026628;28;20288;-60
2024/01/07 06:45:55;;;;;;;9.27;7.20;;;6.90;99.90;;;;;;5025327;28;20287;-60
2024/01/07 06:48:22;;;;;;;8.43;7.33;;;6.90;99.90;;;;;;5023000;28;20344;-60
2024/01/07 06:50:48;;;;;;;9.40;6.50;;;6.90;99.90;;;;;;5022791;28;20223;-60
2024/01/07 06:53:16;;;;;;;8.43;6.73;;;6.80;99.90;;;;;;5025732;28;20249;-59
2024/01/07 06:55:43;;;;;;;8.30;6.73;;;6.70;99.90;;;;;;5025993;28;20210;-59
2024/01/07 06:58:09;;;;;;;8.47;6.67;;;6.60;99.90;;;;;;5022855;28;20203;-59
2024/01/07 07:00:37;;;;;;;8.83;6.80;;;6.50;99.90;;;;;;5022879;28;20206;-59
2024/01/07 07:03:05;;;;;;;8.47;6.63;;;6.50;99.90;;;;;;5024625;28;20211;-59
2024/01/07 07:05:31;;;;;;;8.83;7.43;;;6.40;99.90;;;;;;5025730;28;20668;-60
2024/01/07 07:07:58;;;;;;;7.53;6.60;;;6.40;99.90;;;;;;5024144;28;20210;-60
2024/01/07 07:10:25;;;;;;;8.63;6.77;;;6.40;99.90;;;;;;5022100;28;20619;-59
2024/01/07 07:12:51;;;;;;;11.60;7.13;;;6.50;99.90;;;;;;5022620;28;20207;-59
2024/01/07 07:15:18;;;;;;;8.23;7.23;;;6.50;99.90;;;;;;5025658;28;20307;-60
2024/01/07 07:17:46;;;;;;;8.27;6.77;;;6.40;99.90;;;;;;5025393;28;20675;-58
2024/01/07 07:20:13;;;;;;;8.97;6.93;;;6.40;99.90;;;;;;5025534;28;20585;-58
2024/01/07 07:22:40;;;;;;;8.43;7.33;;;6.50;99.90;;;;;;5025213;28;20206;-60
2024/01/07 07:25:07;;;;;;;9.27;6.97;;;6.50;99.90;;;;;;5022860;28;20321;-60
2024/01/07 07:27:34;;;;;;;9.67;7.23;;;6.60;99.90;;;;;;5022183;28;20207;-60
2024/01/07 07:30:00;;;;;;;9.23;6.97;;;6.50;99.90;;;;;;5023679;28;20242;-60
2024/01/07 07:32:27;;;;;;;7.60;6.80;;;6.60;99.90;;;;;;5025185;28;20218;-59
2024/01/07 07:34:55;;;;;;;7.87;6.90;;;6.60;99.90;;;;;;5024079;28;20607;-60
2024/01/07 07:37:22;;;;;;;8.53;6.67;;;6.60;99.90;;;;;;5021833;28;20294;-60
2024/01/07 07:39:49;;;;;;;8.10;6.43;;;6.40;99.90;;;;;;5021831;28;20593;-60
2024/01/07 07:42:16;;;;;;;8.07;7.00;;;6.30;99.90;;;;;;5025059;28;20625;-60
2024/01/07 07:44:42;;;;;;;10.27;6.70;;;6.20;99.90;;;;;;5024552;28;20304;-59
2024/01/07 07:47:11;;;;;;;6.93;5.90;;;6.10;99.90;;;;;;5021968;28;20215;-60
2024/01/07 07:49:39;;;;;;;7.20;6.03;;;6.00;99.90;;;;;;5021568;28;20463;-59
2024/01/07 07:52:08;;;;;;;7.67;6.07;;;5.80;99.90;;;;;;5023178;28;20403;-60
2024/01/07 07:54:35;;;;;;;6.63;5.70;;;5.70;99.90;;;;;;5024478;28;20257;-60
2024/01/07 07:57:02;;;;;;;7.63;6.00;;;5.70;99.90;;;;;;5022972;28;20202;-60
2024/01/07 07:59:28;;;;;;;7.87;6.07;;;5.70;99.90;;;;;;5021395;28;20672;-59
2024/01/07 08:01:55;;;;;;;6.77;5.17;;;5.70;99.90;;;;;;5022098;28;20207;-59
2024/01/07 08:04:22;;;;;;;6.13;5.03;;;5.70;99.90;;;;;;5024264;28;20226;-59
2024/01/07 08:06:49;;;;;;;7.57;5.47;;;5.80;99.90;;;;;;5024760;28;20210;-60
2024/01/07 08:09:17;;;;;;;5.37;4.20;;;5.70;99.90;;;;;;5013463;28;20205;-58
2024/01/07 08:11:43;;;;;;;7.17;5.10;;;5.70;99.90;;;;;;5021020;28;20596;-59
2024/01/07 08:14:10;;;;;;;6.73;4.90;;;5.70;99.90;;;;;;5023718;28;20608;-58
2024/01/07 08:16:37;;;;;;;6.07;4.70;;;5.70;99.90;;;;;;5024223;28;20726;-59
2024/01/07 08:19:04;;;;;;;5.50;4.53;;;5.70;99.90;;;;;;5022276;28;20206;-57
2024/01/07 08:21:30;;;;;;;6.37;4.80;;;5.70;99.90;;;;;;5021150;28;20207;-59
2024/01/07 08:23:57;;;;;;;6.77;4.63;;;5.80;99.90;;;;;;5021707;28;20234;-60
2024/01/07 08:26:25;;;;;;;6.60;5.17;;;5.90;99.90;;;;;;5024420;28;20202;-59
2024/01/07 08:28:52;;;;;;;7.17;5.20;;;5.80;99.90;;;;;;5023783;28;20672;-59
2024/01/07 08:31:19;;;;;;;7.00;5.50;;;5.80;99.90;;;;;;5020430;28;20230;-59
2024/01/07 08:33:46;;;;;;;5.77;5.17;;;5.90;99.90;;;;;;5020293;28;20647;-59
2024/01/07 08:36:12;;;;;;;7.00;5.00;;;5.90;99.90;;;;;;5023583;28;20544;-58
2024/01/07 08:38:39;;;;;;;7.60;5.93;;;5.90;99.90;;;;;;5023696;28;20573;-59
2024/01/07 08:41:06;;;;;;;7.63;5.30;;;6.00;99.90;;;;;;5021862;28;20206;-58
2024/01/07 08:43:34;;;;;;;8.00;5.87;;;6.10;99.90;;;;;;5020364;28;20638;-58
2024/01/07 08:46:00;;;;;;;6.93;5.50;;;6.10;99.90;;;;;;5022037;28;20261;-58
2024/01/07 08:48:27;;;;;;;6.27;4.70;;;6.20;99.90;;;;;;5024113;28;20210;-59
2024/01/07 08:50:54;;;;;;;6.57;5.00;;;6.10;99.90;;;;;;5023432;28;20221;-59
2024/01/07 08:53:22;;;;;;;6.53;5.47;;;6.10;99.90;;;;;;5020317;28;20207;-58
2024/01/07 08:55:49;;;;;;;7.33;5.17;;;6.10;99.90;;;;;;5020463;28;20215;-59
2024/01/07 08:58:16;;;;;;;6.60;4.90;;;6.10;99.90;;;;;;5012109;28;20203;-59
2024/01/07 09:00:44;;;;;;;6.13;4.60;;;6.10;99.90;;;;;;5020545;28;20234;-60
2024/01/07 09:03:11;;;;;;;8.60;4.97;;;6.10;99.90;;;;;;5022502;28;20352;-60
2024/01/07 09:05:38;;;;;;;4.90;4.30;;;6.10;99.90;;;;;;5023600;28;20210;-58
2024/01/07 09:08:06;;;;;;;5.33;4.40;;;6.10;99.90;;;;;;5021444;28;20684;-57
2024/01/07 09:10:33;;;;;;;6.53;4.50;;;6.00;99.90;;;;;;5020136;28;20318;-57
2024/01/07 09:13:00;;;;;;;6.37;4.17;;;6.00;99.90;;;;;;5020834;28;20598;-64
2024/01/07 09:15:27;;;;;;;5.17;3.93;;;6.00;99.90;;;;;;5023523;28;20226;-58
2024/01/07 09:17:55;;;;;;;5.77;4.70;;;5.80;99.90;;;;;;5022947;28;20630;-57
2024/01/07 09:20:21;;;;;;;7.03;4.83;;;5.90;99.90;;;;;;5020030;28;20207;-57
2024/01/07 09:22:48;;;;;;;5.73;4.10;;;5.90;99.90;;;;;;5019871;28;20242;-57
2024/01/07 09:25:15;;;;;;;6.03;4.30;;;5.80;99.90;;;;;;5022669;28;20221;-57
2024/01/07 09:27:42;;;;;;;5.17;4.20;;;5.90;99.90;;;;;;5016301;28;20265;-57
2024/01/07 09:30:14;;;;;;;5.60;4.23;;;5.80;99.90;;;;;;5022039;28;20227;-57
2024/01/07 09:32:41;;;;;;;5.57;4.30;;;5.80;99.90;;;;;;5023133;28;20218;-57
2024/01/07 09:35:10;;;;;;;6.63;4.80;;;5.90;99.90;;;;;;5020532;28;20751;-58
2024/01/07 09:37:37;;;;;;;4.67;3.87;;;5.90;99.90;;;;;;5020079;28;20214;-57
2024/01/07 09:40:05;;;;;;;4.20;3.70;;;5.90;99.90;;;;;;5021177;28;20207;-57
2024/01/07 09:42:33;;;;;;;4.53;3.70;;;5.90;99.90;;;;;;5022897;28;20237;-57
2024/01/07 09:45:02;;;;;;;4.80;3.90;;;5.80;99.90;;;;;;5021974;28;20787;-55
2024/01/07 09:47:29;;;;;;;5.20;3.90;;;5.80;99.90;;;;;;5019663;28;20307;-55
2024/01/07 09:49:56;;;;;;;4.57;3.87;;;5.80;99.90;;;;;;5020543;28;20621;-55
2024/01/07 09:52:26;;;;;;;5.20;4.20;;;5.80;99.90;;;;;;5022872;28;20206;-55
2024/01/07 09:54:59;;;;;;;6.10;4.20;;;5.90;99.90;;;;;;5022858;28;20286;-55
2024/01/07 09:57:25;;;;;;;4.93;4.17;;;5.90;99.90;;;;;;5019848;28;20206;-54
2024/01/07 09:59:52;;;;;;;6.03;3.47;;;5.90;99.90;;;;;;5019739;28;20242;-58
2024/01/07 10:02:20;;;;;;;5.20;3.90;;;5.80;99.90;;;;;;5022810;28;20345;-55
2024/01/07 10:04:48;;;;;;;5.60;4.57;;;5.70;99.90;;;;;;5022548;28;20291;-55
2024/01/07 10:07:15;;;;;;;4.23;3.83;;;5.80;99.90;;;;;;5019602;28;20608;-56
2024/01/07 10:09:43;;;;;;;4.97;4.43;;;5.80;99.90;;;;;;5019760;28;20207;-55
2024/01/07 10:12:12;;;;;;;4.30;3.73;;;5.70;99.90;;;;;;5021542;28;20225;-56
2024/01/07 10:14:39;;;;;;;6.33;5.07;;;5.50;99.90;;;;;;5023666;28;20261;-55
2024/01/07 10:17:16;;;;;;;6.80;4.80;;;5.30;99.90;;;;;;5024824;28;20256;-55
2024/01/07 10:19:44;;;;;;;5.93;4.47;;;5.30;99.90;;;;;;5023212;28;20298;-56
2024/01/07 10:22:13;;;;;;;6.17;4.43;;;5.20;99.90;;;;;;5025717;28;20253;-56
2024/01/07 10:24:41;;;;;;;5.40;4.43;;;5.30;99.90;;;;;;5026449;28;20237;-55
2024/01/07 10:27:10;;;;;;;6.27;4.57;;;5.30;99.90;;;;;;5024568;28;20233;-55
2024/01/07 10:29:37;;;;;;;7.50;5.50;;;5.30;99.90;;;;;;5023130;28;20265;-55
2024/01/07 10:32:06;;;;;;;9.27;5.63;;;5.20;99.90;;;;;;5024142;28;20268;-54
2024/01/07 10:34:33;;;;;;;10.40;6.80;;;5.10;99.90;;;;;;5026369;28;20698;-54
2024/01/07 10:37:00;;;;;;;5.90;4.83;;;5.10;99.90;;;;;;5025617;28;20210;-54
2024/01/07 10:39:27;;;;;;;7.23;5.20;;;5.10;99.90;;;;;;5023049;28;20256;-54
2024/01/07 10:41:57;;;;;;;6.27;4.80;;;5.10;99.90;;;;;;5022751;28;20669;-57
2024/01/07 10:44:26;;;;;;;6.73;5.90;;;5.30;99.90;;;;;;5025748;28;20233;-52
2024/01/07 10:46:55;;;;;;;6.27;4.50;;;5.40;99.90;;;;;;5026478;28;20214;-51
2024/01/07 10:49:23;;;;;;;6.77;5.10;;;5.50;99.90;;;;;;5015505;28;20274;-53
2024/01/07 10:52:02;;;;;;;5.37;4.37;;;5.40;99.90;;;;;;5023361;28;20281;-52
2024/01/07 10:54:30;;;;;;;4.60;3.90;;;5.40;99.90;;;;;;5016116;28;20223;-52
2024/01/07 10:57:00;;;;;;;5.83;4.57;;;5.40;99.90;;;;;;5023439;28;20253;-53
2024/01/07 10:59:30;;;;;;;4.77;4.27;;;5.40;99.90;;;;;;5026674;28;20218;-53
2024/01/07 11:01:57;;;;;;;6.10;4.83;;;5.40;99.90;;;;;;5025800;28;20209;-52
2024/01/07 11:04:30;;;;;;;5.53;4.50;;;5.50;99.90;;;;;;5022776;28;20227;-53
2024/01/07 11:07:04;;;;;;;6.13;5.00;;;5.50;99.90;;;;;;5022867;28;20676;-53
2024/01/07 11:09:37;;;;;;;5.30;4.57;;;5.50;99.90;;;;;;5025960;28;20289;-52
2024/01/07 11:12:04;;;;;;;6.07;5.10;;;5.60;99.90;;;;;;5024794;28;20218;-53
2024/01/07 11:14:42;;;;;;;4.97;4.17;;;5.70;99.90;;;;;;5022525;28;20238;-52
2024/01/07 11:17:08;;;;;;;5.03;4.07;;;5.60;99.90;;;;;;5024363;28;20305;-52
2024/01/07 11:19:36;;;;;;;5.30;4.43;;;5.50;99.90;;;;;;5025901;28;20210;-52
2024/01/07 11:22:23;;;;;;;6.67;4.47;;;5.30;99.90;;;;;;5024245;28;20205;-52
2024/01/07 11:24:50;;;;;;;5.70;4.60;;;5.10;99.90;;;;;;5021853;28;20258;-52
2024/01/07 11:27:17;;;;;;;5.23;4.50;;;5.10;99.90;;;;;;5023923;28;20229;-52
2024/01/07 11:29:53;;;;;;;5.93;4.70;;;5.10;99.90;;;;;;5025553;28;20210;-53
2024/01/07 11:32:19;;;;;;;5.00;4.50;;;5.10;99.90;;;;;;5021507;28;20249;-53
2024/01/07 11:34:49;;;;;;;5.23;4.33;;;5.00;99.90;;;;;;5021500;28;20238;-52
2024/01/07 11:37:16;;;;;;;6.43;4.97;;;4.80;99.90;;;;;;5024579;28;20680;-53
2024/01/07 11:39:44;;;;;;;5.90;4.43;;;4.70;99.90;;;;;;5025397;28;20210;-52
2024/01/07 11:42:11;;;;;;;6.40;4.93;;;4.80;99.90;;;;;;5022665;28;20688;-52
2024/01/07 11:44:38;;;;;;;6.00;4.77;;;4.80;99.90;;;;;;5021286;28;20257;-53
2024/01/07 11:47:06;;;;;;;5.53;4.70;;;4.90;99.90;;;;;;5022898;28;20264;-53
2024/01/07 11:49:33;;;;;;;5.23;4.70;;;4.90;99.90;;;;;;5025197;28;20210;-53
2024/01/07 11:52:01;;;;;;;5.37;4.77;;;5.00;99.90;;;;;;5024109;28;20256;-54
2024/01/07 11:54:28;;;;;;;6.23;4.70;;;5.00;99.90;;;;;;5021392;28;20270;-52
2024/01/07 11:56:56;;;;;;;6.77;5.27;;;5.00;99.90;;;;;;5021555;28;20207;-53
2024/01/07 11:59:23;;;;;;;7.77;4.47;;;5.00;99.90;;;;;;5013561;28;20210;-54
2024/01/07 12:01:49;;;;;;;6.00;4.90;;;5.00;99.90;;;;;;5021592;28;20211;-53
2024/01/07 12:04:17;;;;;;;10.23;5.40;;;5.10;99.90;;;;;;5024562;28;20265;-53
2024/01/07 12:06:44;;;;;;;6.60;5.43;;;5.20;99.90;;;;;;5025234;28;20479;-53
2024/01/07 12:09:13;;;;;;;7.10;5.60;;;5.10;99.90;;;;;;5023105;28;20210;-53
2024/01/07 12:11:40;;;;;;;6.23;5.23;;;5.10;99.90;;;;;;5021845;28;20230;-53
2024/01/07 12:14:08;;;;;;;7.60;5.47;;;5.20;99.90;;;;;;5023271;28;20281;-54
2024/01/07 12:16:35;;;;;;;6.67;5.43;;;5.20;99.90;;;;;;5024789;28;20206;-54
2024/01/07 12:19:01;;;;;;;7.33;5.67;;;5.20;99.90;;;;;;5023800;28;20260;-53
2024/01/07 12:21:30;;;;;;;6.33;5.23;;;5.10;99.90;;;;;;5021063;28;20261;-53
2024/01/07 12:23:57;;;;;;;6.27;5.27;;;5.00;99.90;;;;;;5021447;28;20226;-53
2024/01/07 12:26:26;;;;;;;6.47;5.17;;;4.90;99.90;;;;;;5013289;28;20294;-52
2024/01/07 12:28:54;;;;;;;6.03;4.47;;;4.80;99.90;;;;;;5021299;28;20202;-53
2024/01/07 12:31:21;;;;;;;5.67;4.70;;;4.80;99.90;;;;;;5024681;28;20308;-53
2024/01/07 12:33:48;;;;;;;5.70;4.70;;;4.70;99.90;;;;;;5024285;28;20226;-52
2024/01/07 12:36:15;;;;;;;6.10;4.90;;;4.60;99.90;;;;;;5021976;28;20206;-52
2024/01/07 12:38:43;;;;;;;6.73;4.90;;;4.60;99.90;;;;;;5021118;28;20559;-53
2024/01/07 12:41:10;;;;;;;6.47;5.00;;;4.60;99.90;;;;;;5022344;28;20684;-53
2024/01/07 12:43:36;;;;;;;6.40;5.10;;;4.50;99.90;;;;;;5023693;28;20234;-54
2024/01/07 12:46:05;;;;;;;5.57;4.70;;;4.60;99.90;;;;;;5023410;28;20213;-53
2024/01/07 12:48:31;;;;;;;7.60;5.80;;;4.60;99.90;;;;;;5020653;28;20239;-52
2024/01/07 12:50:58;;;;;;;6.93;5.40;;;4.50;99.90;;;;;;5020471;28;20211;-52